Time;durP1;ratioP1;P1;durP2;ratioP2;P2;SDS_P1;SDS_P2;PMS_P1;PMS_P2;Temp;Humidity;BMP_temperature;BMP_pressure;BME280_temperature;BME280_humidity;BME280_pressure;Samples;Min_cycle;Max_cycle;Signal;HPM_P1;HPM_P2
2023/06/11 06:27:31;;;;;;;10.90;10.60;;;20.50;99.90;;;;;;5039288;28;20224;-87
2023/06/11 06:30:03;;;;;;;11.30;11.00;;;20.60;99.90;;;;;;5022425;28;20401;-84
2023/06/11 06:32:36;;;;;;;11.10;10.80;;;20.70;99.90;;;;;;5024042;28;20247;-85
2023/06/11 06:35:09;;;;;;;10.85;10.55;;;20.90;99.90;;;;;;5023563;28;20240;-84
2023/06/11 06:38:06;;;;;;;11.10;10.80;;;21.10;99.90;;;;;;5023222;28;20233;-84
2023/06/11 06:40:45;;;;;;;10.88;10.57;;;21.10;99.90;;;;;;5023492;28;20240;-85
2023/06/11 06:43:14;;;;;;;10.90;10.60;;;21.20;99.90;;;;;;5023363;28;20263;-84
2023/06/11 06:46:06;;;;;;;10.70;10.40;;;21.40;99.90;;;;;;5023180;28;20239;-84
2023/06/11 06:48:38;;;;;;;10.70;10.40;;;21.50;99.90;;;;;;5023509;28;20326;-85
2023/06/11 06:54:48;;;;;;;10.80;10.50;;;21.60;99.90;;;;;;5023333;28;20237;-85
2023/06/11 06:57:26;;;;;;;;;;;;;;;;;;;;;
2023/06/11 07:00:04;;;;;;;10.70;10.40;;;21.60;99.90;;;;;;5020345;28;20256;-84
2023/06/11 07:02:41;;;;;;;10.75;10.45;;;21.60;99.90;;;;;;5023361;28;20228;-83
2023/06/11 07:05:12;;;;;;;10.65;10.35;;;21.60;99.90;;;;;;5021858;28;20227;-85
2023/06/11 07:08:07;;;;;;;10.63;10.32;;;21.70;99.90;;;;;;5028673;28;20223;-85
2023/06/11 07:14:30;;;;;;;10.50;10.20;;;21.90;99.90;;;;;;4903603;29;20315;-83
2023/06/11 07:17:04;;;;;;;10.60;10.30;;;22.10;99.90;;;;;;5024144;28;20271;-84
2023/06/11 07:19:32;;;;;;;10.50;10.20;;;22.20;99.90;;;;;;5023097;28;20231;-85
2023/06/11 07:25:18;;;;;;;10.60;10.30;;;22.50;99.90;;;;;;5021941;28;20330;-84
2023/06/11 07:27:55;;;;;;;10.50;10.20;;;22.60;99.90;;;;;;5023057;28;20232;-85
2023/06/11 07:30:40;;;;;;;10.40;10.10;;;22.70;99.90;;;;;;5023051;28;20223;-85
2023/06/11 07:33:19;;;;;;;10.40;10.10;;;22.80;99.90;;;;;;5023456;28;20232;-84
2023/06/11 07:35:59;;;;;;;10.70;10.40;;;22.90;99.90;;;;;;5022856;28;20236;-84
2023/06/11 07:38:40;;;;;;;10.60;10.30;;;23.00;99.90;;;;;;5022431;28;20221;-85
2023/06/11 07:41:13;;;;;;;10.48;10.18;;;23.00;99.90;;;;;;5022862;28;20260;-85
2023/06/11 07:43:44;;;;;;;10.50;10.20;;;23.00;99.90;;;;;;5023411;28;20239;-87
2023/06/11 07:46:25;;;;;;;;;;;;;;;;;;;;;
2023/06/11 07:49:00;;;;;;;10.40;10.10;;;23.20;99.90;;;;;;5023673;28;20235;-85
2023/06/11 07:54:43;;;;;;;10.40;10.10;;;23.30;99.90;;;;;;5030538;28;20223;-85
2023/06/11 07:57:19;;;;;;;10.18;9.88;;;23.40;99.90;;;;;;5040558;28;20262;-83
2023/06/11 07:59:53;;;;;;;10.40;10.10;;;23.60;99.90;;;;;;5039990;28;20243;-85
2023/06/11 08:09:16;;;;;;;10.10;9.80;;;23.90;99.90;;;;;;5022565;28;20228;-85
2023/06/11 08:21:42;;;;;;;10.50;10.20;;;24.50;99.90;;;;;;5034346;28;20260;-84
2023/06/11 08:24:18;;;;;;;10.40;10.10;;;24.70;99.90;;;;;;5026096;28;20239;-85
2023/06/11 08:30:13;;;;;;;10.00;9.70;;;24.80;99.90;;;;;;5013653;28;20235;-85
2023/06/11 08:33:25;;;;;;;10.25;9.95;;;25.00;99.90;;;;;;5019885;28;20259;-85
2023/06/11 08:36:14;;;;;;;10.43;10.13;;;25.10;99.90;;;;;;5021986;28;20232;-85
2023/06/11 08:52:56;;;;;;;10.55;10.25;;;25.70;99.90;;;;;;4910821;29;20316;-87
2023/06/11 08:55:32;;;;;;;10.45;10.15;;;25.70;99.90;;;;;;4942399;28;20273;-83
2023/06/11 08:58:57;;;;;;;;;;;;;;;;;;;;;
2023/06/11 09:01:51;;;;;;;;;;;;;;;;;;;;;
2023/06/11 09:04:41;;;;;;;10.50;10.20;;;26.10;99.90;;;;;;5042110;28;20204;-85
2023/06/11 09:08:02;;;;;;;10.57;10.27;;;26.30;99.90;;;;;;5041696;28;20259;-84
2023/06/11 09:14:53;;;;;;;10.20;9.90;;;26.70;99.90;;;;;;5033872;28;20238;-85
2023/06/11 09:41:33;;;;;;;10.00;9.70;;;27.20;99.90;;;;;;5005321;28;20228;-85
2023/06/11 10:05:08;;;;;;;9.75;9.45;;;27.90;99.90;;;;;;4824325;29;20234;-83
2023/06/11 10:07:45;;;;;;;9.63;9.32;;;28.00;99.90;;;;;;4936259;28;20333;-83
2023/06/11 10:10:23;;;;;;;9.90;9.60;;;27.80;99.90;;;;;;5040100;28;20258;-83
2023/06/11 10:12:53;;;;;;;10.00;9.70;;;27.80;99.90;;;;;;5040695;28;20227;-80
2023/06/11 10:15:24;;;;;;;9.98;9.68;;;27.80;99.90;;;;;;5040924;28;20290;-81
2023/06/11 10:17:54;;;;;;;9.95;9.65;;;28.10;99.90;;;;;;5041262;28;20231;-81
2023/06/11 10:20:35;;;;;;;10.05;9.75;;;28.10;99.90;;;;;;5041571;28;20226;-83
2023/06/11 10:23:10;;;;;;;10.50;10.20;;;28.20;99.90;;;;;;5040370;28;20494;-83
2023/06/11 10:25:39;;;;;;;9.85;9.55;;;28.10;99.90;;;;;;5040734;28;20219;-82
2023/06/11 10:28:09;;;;;;;9.60;9.30;;;28.00;99.90;;;;;;5040732;28;20239;-82
2023/06/11 10:30:39;;;;;;;9.90;9.60;;;28.10;99.90;;;;;;5041829;28;20305;-87
2023/06/11 10:33:09;;;;;;;9.70;9.40;;;28.40;99.90;;;;;;5020998;28;20532;-85
2023/06/11 10:35:47;;;;;;;9.90;9.60;;;28.80;99.90;;;;;;5020633;28;20248;-82
2023/06/11 10:38:16;;;;;;;9.95;9.65;;;28.90;99.90;;;;;;5024845;28;20351;-83
2023/06/11 10:40:47;;;;;;;10.00;9.70;;;28.90;99.90;;;;;;5033015;28;20221;-83
2023/06/11 10:43:23;;;;;;;10.00;9.70;;;29.10;99.90;;;;;;5035403;28;20243;-81
2023/06/11 10:46:02;;;;;;;10.30;10.00;;;29.40;99.90;;;;;;5032922;28;20288;-83
2023/06/11 10:48:31;;;;;;;10.20;9.90;;;29.40;99.90;;;;;;5026014;28;20230;-83
2023/06/11 10:51:09;;;;;;;9.93;9.63;;;29.70;99.90;;;;;;5025382;28;20255;-82
2023/06/11 10:53:41;;;;;;;10.10;9.80;;;29.60;99.90;;;;;;5024720;28;20234;-83
2023/06/11 10:56:16;;;;;;;10.07;9.77;;;29.70;99.90;;;;;;5024131;28;20302;-83
2023/06/11 10:58:56;;;;;;;9.90;9.60;;;29.80;99.90;;;;;;5024467;28;20309;-82
2023/06/11 11:01:27;;;;;;;9.90;9.60;;;29.90;99.90;;;;;;5024533;28;20259;-85
2023/06/11 11:03:54;;;;;;;10.00;9.70;;;30.00;99.90;;;;;;5023513;28;20236;-86
2023/06/11 11:06:38;;;;;;;10.15;9.85;;;30.00;99.90;;;;;;5023771;28;20282;-87
2023/06/11 11:09:11;;;;;;;10.15;9.85;;;30.10;99.90;;;;;;5023171;28;20240;-86
2023/06/11 11:11:39;;;;;;;10.27;9.98;;;30.00;99.90;;;;;;5023387;28;20259;-85
2023/06/11 11:14:09;;;;;;;10.40;10.10;;;29.70;99.90;;;;;;5022880;28;20235;-85
2023/06/11 11:16:39;;;;;;;10.25;9.95;;;29.80;99.90;;;;;;5022834;28;20370;-86
2023/06/11 11:19:08;;;;;;;10.27;9.98;;;30.00;99.90;;;;;;5023412;28;20298;-86
2023/06/11 11:21:57;;;;;;;10.07;9.77;;;30.10;99.90;;;;;;5036467;28;20247;-84
2023/06/11 11:24:25;;;;;;;10.30;10.00;;;30.00;99.90;;;;;;5036807;28;20298;-85
2023/06/11 11:26:55;;;;;;;10.07;9.77;;;29.70;99.90;;;;;;5023263;28;20326;-87
2023/06/11 11:29:24;;;;;;;10.00;9.70;;;30.00;99.90;;;;;;5026210;28;20357;-83
2023/06/11 11:31:53;;;;;;;10.20;9.90;;;30.10;99.90;;;;;;5034746;28;20200;-82
2023/06/11 11:34:23;;;;;;;10.30;10.00;;;30.00;99.90;;;;;;5042480;28;20216;-83
2023/06/11 11:36:55;;;;;;;10.40;10.10;;;29.60;99.90;;;;;;5041579;28;20224;-85
2023/06/11 11:39:22;;;;;;;10.30;10.00;;;29.80;99.90;;;;;;5036053;28;20239;-84
2023/06/11 11:41:51;;;;;;;10.35;10.05;;;29.80;99.90;;;;;;5035132;28;20216;-84
2023/06/11 11:44:20;;;;;;;10.10;9.80;;;29.90;99.90;;;;;;5034643;28;20241;-84
2023/06/11 11:46:49;;;;;;;10.15;9.85;;;29.90;99.90;;;;;;5030545;28;20235;-84
2023/06/11 11:49:18;;;;;;;10.23;9.93;;;29.90;99.90;;;;;;5089396;22;20269;-81
2023/06/11 11:51:52;;;;;;;10.23;9.93;;;30.20;99.90;;;;;;5072772;28;20222;-81
2023/06/11 11:54:25;;;;;;;10.45;10.15;;;30.30;99.90;;;;;;5070086;28;20227;-81
2023/06/11 11:57:07;;;;;;;10.10;9.80;;;30.50;99.90;;;;;;5068811;28;20235;-81
2023/06/11 11:59:40;;;;;;;10.52;10.23;;;30.60;99.90;;;;;;5028068;28;20281;-82
2023/06/11 12:02:09;;;;;;;10.45;10.15;;;30.00;99.90;;;;;;5025214;28;20228;-82
2023/06/11 12:04:39;;;;;;;10.15;9.85;;;29.80;99.90;;;;;;5024637;28;20256;-81
2023/06/11 12:07:12;;;;;;;10.10;9.80;;;30.20;99.90;;;;;;5024854;28;20266;-81
2023/06/11 12:09:43;;;;;;;10.40;10.10;;;30.10;99.90;;;;;;5033407;28;20295;-81
2023/06/11 12:12:11;;;;;;;10.60;10.30;;;30.00;99.90;;;;;;5025747;28;20225;-81
2023/06/11 12:14:39;;;;;;;10.32;10.02;;;30.10;99.90;;;;;;5025546;28;20292;-82
2023/06/11 12:17:10;;;;;;;10.32;10.02;;;30.50;99.90;;;;;;5026256;28;20232;-83
2023/06/11 12:19:40;;;;;;;10.57;10.27;;;30.40;99.90;;;;;;5025725;28;20260;-83
2023/06/11 12:22:10;;;;;;;10.20;9.90;;;30.30;99.90;;;;;;5025462;28;20235;-83
2023/06/11 12:24:39;;;;;;;10.30;10.00;;;30.00;99.90;;;;;;5025587;28;20256;-82
2023/06/11 12:27:10;;;;;;;10.10;9.80;;;29.90;99.90;;;;;;5025793;28;20240;-83
2023/06/11 12:29:38;;;;;;;10.30;10.00;;;30.00;99.90;;;;;;5025121;28;20236;-82
2023/06/11 12:32:18;;;;;;;10.32;10.02;;;30.00;99.90;;;;;;5024945;28;20228;-83
2023/06/11 12:34:45;;;;;;;10.40;10.10;;;29.70;99.90;;;;;;5025629;28;20290;-83
2023/06/11 12:37:14;;;;;;;10.20;9.90;;;29.30;99.90;;;;;;5024818;28;20300;-82
2023/06/11 12:39:43;;;;;;;10.43;10.13;;;29.20;99.90;;;;;;5024131;28;20239;-82
2023/06/11 12:42:14;;;;;;;10.30;10.00;;;29.30;99.90;;;;;;5024103;28;20232;-82
2023/06/11 12:44:45;;;;;;;10.35;10.05;;;29.50;99.90;;;;;;5025429;28;20224;-83
2023/06/11 12:47:13;;;;;;;10.38;10.07;;;29.90;99.90;;;;;;5025454;28;20282;-81
2023/06/11 12:49:42;;;;;;;9.98;9.68;;;29.90;99.90;;;;;;5027095;28;20296;-81
2023/06/11 12:52:11;;;;;;;10.13;9.82;;;29.90;99.90;;;;;;5028347;28;20260;-81
2023/06/11 12:54:41;;;;;;;10.20;9.90;;;30.20;99.90;;;;;;5027720;28;20232;-81
2023/06/11 12:57:11;;;;;;;10.30;10.00;;;30.20;99.90;;;;;;5025414;28;20240;-82
2023/06/11 12:59:45;;;;;;;10.27;9.98;;;29.80;99.90;;;;;;5024546;28;20220;-82
2023/06/11 13:02:17;;;;;;;10.23;9.93;;;29.60;99.90;;;;;;5030246;28;20263;-82
2023/06/11 13:04:45;;;;;;;10.30;10.00;;;29.70;99.90;;;;;;5028594;28;20239;-79
2023/06/11 13:07:17;;;;;;;10.20;9.90;;;30.20;99.90;;;;;;5027721;28;20267;-81
2023/06/11 13:09:45;;;;;;;10.65;10.35;;;30.70;99.90;;;;;;5027630;28;20259;-82
2023/06/11 13:12:15;;;;;;;10.27;9.98;;;31.20;99.90;;;;;;5027506;28;20232;-81
2023/06/11 13:14:50;;;;;;;10.10;9.80;;;31.00;99.90;;;;;;5026391;28;20236;-81
2023/06/11 13:17:18;;;;;;;10.18;9.88;;;30.40;99.90;;;;;;5024571;28;20271;-82
2023/06/11 13:19:46;;;;;;;10.20;9.90;;;30.10;99.90;;;;;;5025023;28;20260;-81
2023/06/11 13:22:15;;;;;;;10.13;9.82;;;30.40;99.90;;;;;;5027720;28;20243;-82
2023/06/11 13:24:43;;;;;;;10.23;9.93;;;30.70;99.90;;;;;;5025982;28;20266;-82
2023/06/11 13:27:13;;;;;;;10.23;9.93;;;31.20;99.90;;;;;;5025071;28;20232;-83
2023/06/11 13:29:42;;;;;;;10.13;9.82;;;31.40;99.90;;;;;;5023721;28;20232;-84
2023/06/11 13:32:14;;;;;;;9.90;9.60;;;31.10;99.90;;;;;;5025868;28;20204;-81
2023/06/11 13:34:42;;;;;;;10.00;9.70;;;30.30;99.90;;;;;;5024928;28;20235;-82
2023/06/11 13:37:10;;;;;;;10.00;9.70;;;29.90;99.90;;;;;;5026845;28;20240;-81
2023/06/11 13:39:39;;;;;;;9.82;9.52;;;29.90;99.90;;;;;;5044229;28;20223;-81
2023/06/11 13:42:10;;;;;;;9.88;9.57;;;30.30;99.90;;;;;;5044443;28;20230;-82
2023/06/11 13:44:38;;;;;;;10.00;9.70;;;30.30;99.90;;;;;;5044624;28;20235;-82
2023/06/11 13:47:08;;;;;;;9.70;9.40;;;30.10;99.90;;;;;;5045264;28;20236;-81
2023/06/11 13:49:37;;;;;;;10.13;9.82;;;30.00;99.90;;;;;;5042627;28;20246;-81
2023/06/11 13:52:06;;;;;;;10.10;9.80;;;30.30;99.90;;;;;;5043095;28;20289;-82
2023/06/11 13:54:34;;;;;;;10.15;9.85;;;30.80;99.90;;;;;;5044129;28;20258;-81
2023/06/11 13:57:04;;;;;;;10.55;10.25;;;31.30;99.90;;;;;;5044484;28;20266;-82
2023/06/11 13:59:37;;;;;;;10.32;10.02;;;31.30;99.90;;;;;;5044968;28;20298;-82
2023/06/11 14:02:05;;;;;;;10.18;9.88;;;30.80;99.90;;;;;;5045780;28;20231;-82
2023/06/11 14:04:34;;;;;;;10.07;9.77;;;30.20;99.90;;;;;;5044859;28;20246;-81
2023/06/11 14:07:08;;;;;;;10.07;9.77;;;29.90;99.90;;;;;;5046426;28;20219;-80
2023/06/11 14:09:36;;;;;;;10.35;10.05;;;30.10;99.90;;;;;;5042909;28;20234;-81
2023/06/11 14:12:04;;;;;;;10.20;9.90;;;30.50;99.90;;;;;;5045045;28;20252;-83
2023/06/11 14:14:33;;;;;;;10.27;9.98;;;30.80;99.90;;;;;;5047140;28;20231;-83
2023/06/11 14:17:04;;;;;;;10.35;10.05;;;30.90;99.90;;;;;;5046491;28;20235;-83
2023/06/11 14:19:32;;;;;;;10.60;10.30;;;31.10;99.90;;;;;;5046682;28;20238;-84
2023/06/11 14:22:01;;;;;;;10.15;9.85;;;31.30;99.90;;;;;;5046598;28;20231;-82
2023/06/11 14:24:31;;;;;;;10.13;9.82;;;31.20;99.90;;;;;;5047295;28;20290;-81
2023/06/11 14:27:01;;;;;;;10.25;9.95;;;30.80;99.90;;;;;;5046152;28;20288;-83
2023/06/11 14:29:30;;;;;;;10.35;10.05;;;30.80;99.90;;;;;;5046553;28;20227;-83
2023/06/11 14:32:00;;;;;;;10.00;9.70;;;31.00;99.90;;;;;;5046749;28;20228;-83
2023/06/11 14:34:30;;;;;;;10.15;9.85;;;31.40;99.90;;;;;;5048441;28;20234;-83
2023/06/11 14:37:11;;;;;;;10.10;9.80;;;32.00;99.90;;;;;;5048342;28;20235;-82
2023/06/11 14:39:42;;;;;;;10.27;9.98;;;32.40;99.90;;;;;;5050645;28;20243;-83
2023/06/11 14:42:13;;;;;;;10.32;10.02;;;32.70;99.90;;;;;;5049989;28;20216;-79
2023/06/11 14:44:41;;;;;;;10.43;10.13;;;32.70;99.90;;;;;;5049367;28;20243;-81
2023/06/11 14:47:09;;;;;;;10.45;10.15;;;32.60;99.90;;;;;;5046985;28;20255;-79
2023/06/11 14:49:37;;;;;;;10.35;10.05;;;32.60;99.90;;;;;;5046420;28;20247;-80
2023/06/11 14:52:08;;;;;;;10.13;9.82;;;32.60;99.90;;;;;;5046507;28;20235;-86
2023/06/11 14:54:36;;;;;;;10.00;9.70;;;32.20;99.90;;;;;;5055136;28;20246;-84
2023/06/11 15:00:00;;;;;;;9.85;9.55;;;31.10;99.90;;;;;;5058413;28;20235;-79
2023/06/11 15:02:34;;;;;;;10.10;9.80;;;31.20;99.90;;;;;;5058317;28;20199;-79
2023/06/11 15:05:02;;;;;;;9.82;9.52;;;31.50;99.90;;;;;;5058485;28;20235;-80
2023/06/11 15:07:29;;;;;;;10.07;9.77;;;32.00;99.90;;;;;;5058801;28;20227;-81
2023/06/11 15:09:57;;;;;;;10.45;10.15;;;32.20;99.90;;;;;;5057947;28;20255;-81
2023/06/11 15:12:27;;;;;;;10.55;10.25;;;32.40;99.90;;;;;;5058162;28;20243;-81
2023/06/11 15:14:56;;;;;;;10.50;10.20;;;32.50;99.90;;;;;;5059636;28;20231;-81
2023/06/11 15:17:24;;;;;;;10.30;10.00;;;32.50;99.90;;;;;;5058961;28;20266;-82
2023/06/11 15:19:53;;;;;;;10.40;10.10;;;32.20;99.90;;;;;;5058995;28;20236;-81
2023/06/11 15:22:22;;;;;;;9.90;9.60;;;31.90;99.90;;;;;;5058605;28;20231;-81
2023/06/11 15:24:50;;;;;;;10.02;9.73;;;31.80;99.90;;;;;;5058013;28;20224;-81
2023/06/11 15:27:20;;;;;;;9.90;9.60;;;31.90;99.90;;;;;;5059564;28;20232;-81
2023/06/11 15:29:52;;;;;;;10.05;9.75;;;32.10;99.90;;;;;;5058752;28;20235;-85
2023/06/11 15:32:20;;;;;;;10.13;9.82;;;32.40;99.90;;;;;;5059433;28;20235;-81
2023/06/11 15:34:50;;;;;;;10.32;10.02;;;32.60;99.90;;;;;;5058015;28;20238;-81
2023/06/11 15:37:18;;;;;;;10.45;10.15;;;32.70;99.90;;;;;;5058215;28;20239;-80
2023/06/11 15:39:51;;;;;;;10.50;10.20;;;32.90;99.90;;;;;;5055514;28;20235;-80
2023/06/11 15:42:19;;;;;;;10.80;10.50;;;33.10;99.90;;;;;;5053937;28;20227;-81
2023/06/11 15:44:50;;;;;;;10.63;10.32;;;33.30;99.90;;;;;;5047897;28;20239;-81
2023/06/11 15:47:18;;;;;;;10.32;10.02;;;33.50;99.90;;;;;;5035165;28;20236;-81
2023/06/11 15:49:46;;;;;;;10.30;10.00;;;33.70;99.90;;;;;;5038544;28;20239;-81
2023/06/11 15:52:15;;;;;;;10.40;10.10;;;33.80;99.90;;;;;;5051570;28;20232;-82
2023/06/11 15:54:43;;;;;;;10.30;10.00;;;33.80;99.90;;;;;;5054585;28;20231;-81
2023/06/11 15:57:11;;;;;;;10.38;10.07;;;33.60;99.90;;;;;;5057124;28;20228;-81
2023/06/11 15:59:40;;;;;;;10.30;10.00;;;33.20;99.90;;;;;;5051455;28;20224;-80
2023/06/11 16:02:11;;;;;;;10.80;10.50;;;32.80;99.90;;;;;;5050997;28;20270;-82
2023/06/11 16:04:40;;;;;;;10.50;10.20;;;32.60;98.40;;;;;;5054132;28;20235;-81
2023/06/11 16:07:08;;;;;;;10.50;10.20;;;32.20;97.20;;;;;;5058686;28;20231;-80
2023/06/11 16:09:36;;;;;;;10.73;10.43;;;31.80;98.80;;;;;;5056851;28;20259;-80
2023/06/11 16:12:04;;;;;;;10.63;10.32;;;31.60;97.90;;;;;;5051341;28;20224;-81
2023/06/11 16:14:33;;;;;;;10.60;10.30;;;31.50;97.50;;;;;;5050165;28;20236;-81
2023/06/11 16:17:03;;;;;;;10.52;10.23;;;31.50;98.60;;;;;;5049549;28;20259;-81
2023/06/11 16:19:33;;;;;;;10.30;10.00;;;31.50;99.60;;;;;;5049078;28;20255;-81
2023/06/11 16:22:01;;;;;;;10.40;10.10;;;31.80;99.90;;;;;;5049052;28;20243;-81
2023/06/11 16:24:30;;;;;;;10.50;10.20;;;31.90;98.60;;;;;;5049001;28;20284;-81
2023/06/11 16:27:01;;;;;;;10.63;10.32;;;31.90;97.40;;;;;;5048635;28;20231;-81
2023/06/11 16:29:32;;;;;;;10.55;10.25;;;31.50;97.90;;;;;;5048495;28;20235;-81
2023/06/11 16:32:01;;;;;;;10.50;10.20;;;31.20;98.30;;;;;;5048628;28;20243;-81
2023/06/11 16:34:30;;;;;;;10.50;10.20;;;30.90;98.80;;;;;;5048424;28;20237;-81
2023/06/11 16:37:01;;;;;;;10.50;10.20;;;30.80;99.90;;;;;;5049205;28;20262;-81
2023/06/11 16:39:29;;;;;;;10.43;10.13;;;31.10;99.90;;;;;;5048310;28;20235;-81
2023/06/11 16:41:58;;;;;;;10.50;10.20;;;31.10;99.70;;;;;;5049862;28;20274;-82
2023/06/11 16:44:28;;;;;;;10.50;10.20;;;30.90;98.70;;;;;;5047213;28;20230;-82
2023/06/11 16:46:57;;;;;;;10.40;10.10;;;30.60;98.30;;;;;;5048135;28;20238;-82
2023/06/11 16:49:25;;;;;;;10.63;10.32;;;30.50;99.60;;;;;;5048595;28;20248;-82
2023/06/11 16:51:53;;;;;;;10.65;10.35;;;30.50;99.90;;;;;;5044955;28;20215;-82
2023/06/11 16:54:23;;;;;;;10.60;10.30;;;30.50;99.90;;;;;;5046962;28;20235;-82
2023/06/11 16:56:55;;;;;;;10.65;10.35;;;30.40;99.90;;;;;;5046923;28;20239;-82
2023/06/11 16:59:25;;;;;;;10.55;10.25;;;30.30;99.10;;;;;;5053887;28;20226;-81
2023/06/11 17:01:53;;;;;;;10.80;10.50;;;30.20;99.30;;;;;;5079386;28;20235;-82
2023/06/11 17:04:22;;;;;;;10.70;10.40;;;30.10;99.30;;;;;;5073916;28;20239;-81
2023/06/11 17:06:55;;;;;;;10.60;10.30;;;30.10;99.10;;;;;;5059652;28;20211;-81
2023/06/11 17:09:25;;;;;;;10.60;10.30;;;30.10;99.10;;;;;;5059037;28;20551;-81
2023/06/11 17:11:53;;;;;;;10.63;10.32;;;30.30;99.90;;;;;;5059382;28;20511;-82
2023/06/11 17:14:21;;;;;;;10.60;10.30;;;30.30;99.90;;;;;;5049958;28;20291;-82
2023/06/11 17:16:51;;;;;;;10.40;10.10;;;30.50;99.70;;;;;;5048278;28;20247;-81
2023/06/11 17:19:20;;;;;;;10.50;10.20;;;30.70;99.90;;;;;;5047186;28;20223;-83
2023/06/11 17:21:49;;;;;;;10.55;10.25;;;30.70;99.20;;;;;;5046726;28;21054;-82
2023/06/11 17:24:19;;;;;;;10.55;10.25;;;30.50;99.00;;;;;;5047057;28;20406;-83
2023/06/11 17:26:50;;;;;;;10.85;10.55;;;30.30;99.90;;;;;;5046149;28;20231;-82
2023/06/11 17:29:18;;;;;;;10.50;10.20;;;30.20;99.90;;;;;;5044325;28;20238;-81
2023/06/11 17:31:46;;;;;;;10.57;10.27;;;30.00;98.90;;;;;;5046124;28;20235;-80
2023/06/11 17:34:14;;;;;;;10.68;10.38;;;30.00;99.30;;;;;;5045978;28;20219;-83
2023/06/11 17:36:42;;;;;;;10.80;10.50;;;29.80;99.50;;;;;;5046049;28;20250;-81
2023/06/11 17:39:10;;;;;;;10.60;10.30;;;29.90;99.80;;;;;;5045266;28;20231;-83
2023/06/11 17:41:37;;;;;;;10.50;10.20;;;30.10;99.70;;;;;;5045147;28;20227;-82
2023/06/11 17:44:07;;;;;;;10.55;10.25;;;30.30;99.90;;;;;;5044618;28;20232;-83
2023/06/11 17:46:35;;;;;;;10.50;10.20;;;30.40;99.50;;;;;;5044638;28;20231;-83
2023/06/11 17:49:05;;;;;;;10.50;10.20;;;30.50;99.90;;;;;;5097286;22;20256;-84
2023/06/11 17:51:34;;;;;;;10.68;10.38;;;30.50;99.90;;;;;;5066007;28;20219;-85
2023/06/11 17:54:03;;;;;;;10.43;10.13;;;30.40;99.20;;;;;;5067376;28;20238;-83
2023/06/11 17:56:35;;;;;;;10.50;10.20;;;30.30;99.50;;;;;;5068951;28;20261;-84
2023/06/11 17:59:15;;;;;;;10.50;10.20;;;29.90;99.60;;;;;;5058401;28;20232;-83
2023/06/11 18:01:50;;;;;;;10.50;10.20;;;29.60;99.60;;;;;;5048406;28;20227;-84
2023/06/11 18:04:21;;;;;;;10.55;10.25;;;29.20;99.90;;;;;;5047729;28;20227;-84
2023/06/11 18:06:49;;;;;;;10.50;10.20;;;28.90;99.90;;;;;;5047872;28;20227;-84
2023/06/11 18:09:18;;;;;;;10.32;10.02;;;28.70;99.30;;;;;;5054007;28;20228;-83
2023/06/11 18:11:48;;;;;;;10.25;9.95;;;28.50;99.70;;;;;;5057344;28;20220;-84
2023/06/11 18:14:21;;;;;;;10.30;10.00;;;28.30;99.90;;;;;;5049013;28;20251;-84
2023/06/11 18:16:48;;;;;;;10.25;9.95;;;28.20;99.60;;;;;;5048422;28;20365;-84
2023/06/11 18:19:18;;;;;;;10.40;10.10;;;28.20;99.90;;;;;;5049262;28;20240;-84
2023/06/11 18:21:47;;;;;;;10.20;9.90;;;28.10;99.90;;;;;;5047400;28;20235;-83
2023/06/11 18:24:16;;;;;;;10.40;10.10;;;27.90;99.90;;;;;;5051165;28;20296;-84
2023/06/11 18:26:46;;;;;;;10.60;10.30;;;27.80;99.90;;;;;;5065866;28;20231;-84
2023/06/11 18:29:17;;;;;;;10.55;10.25;;;27.60;99.90;;;;;;5065727;28;20226;-84
2023/06/11 18:31:45;;;;;;;10.38;10.07;;;27.50;99.90;;;;;;5065774;28;20234;-84
2023/06/11 18:34:15;;;;;;;10.68;10.38;;;27.30;99.90;;;;;;5066009;28;20230;-84
2023/06/11 18:36:46;;;;;;;10.70;10.40;;;27.00;99.90;;;;;;5066247;28;20403;-85
2023/06/11 18:39:14;;;;;;;10.32;10.02;;;26.60;99.90;;;;;;5067161;28;20235;-83
2023/06/11 18:41:43;;;;;;;10.32;10.02;;;26.40;99.90;;;;;;5068242;28;20223;-84
2023/06/11 18:44:12;;;;;;;10.70;10.40;;;26.30;99.90;;;;;;5067631;28;20285;-84
2023/06/11 18:46:51;;;;;;;10.40;10.10;;;26.00;99.90;;;;;;5069355;28;20305;-84
2023/06/11 18:49:20;;;;;;;10.63;10.32;;;25.80;99.90;;;;;;5063893;28;20231;-83
2023/06/11 18:51:50;;;;;;;10.70;10.40;;;25.70;99.90;;;;;;5044319;28;20215;-84
2023/06/11 18:54:19;;;;;;;10.50;10.20;;;25.50;99.90;;;;;;5047575;28;20223;-83
2023/06/11 18:56:48;;;;;;;10.60;10.30;;;25.30;99.90;;;;;;5048098;28;20242;-84
2023/06/11 18:59:17;;;;;;;10.35;10.05;;;25.30;99.90;;;;;;5047851;28;20247;-84
2023/06/11 19:04:34;;;;;;;10.50;10.20;;;25.00;99.90;;;;;;5054730;28;20231;-84
2023/06/11 19:07:03;;;;;;;10.40;10.10;;;25.00;99.90;;;;;;5057202;28;20243;-82
2023/06/11 19:09:32;;;;;;;10.48;10.18;;;24.80;99.90;;;;;;5059746;28;20228;-82
2023/06/11 19:12:04;;;;;;;10.50;10.20;;;24.70;99.90;;;;;;5060718;28;20203;-82
2023/06/11 19:14:31;;;;;;;10.30;10.00;;;24.60;99.90;;;;;;5057347;28;20231;-83
2023/06/11 19:17:10;;;;;;;10.50;10.20;;;24.50;99.90;;;;;;5049623;28;20255;-84
2023/06/11 19:19:39;;;;;;;10.25;9.95;;;24.40;99.90;;;;;;5046470;28;20266;-85
2023/06/11 19:22:09;;;;;;;10.10;9.80;;;24.30;99.90;;;;;;5045746;28;20240;-85
2023/06/11 19:24:38;;;;;;;10.45;10.15;;;24.20;99.90;;;;;;5043217;28;20346;-85
2023/06/11 19:27:08;;;;;;;10.50;10.20;;;24.10;99.90;;;;;;5042678;28;20238;-85
2023/06/11 19:29:37;;;;;;;10.50;10.20;;;24.00;99.90;;;;;;5043087;28;20238;-85
2023/06/11 19:34:53;;;;;;;10.50;10.20;;;23.80;99.90;;;;;;5045950;28;20223;-85
2023/06/11 19:37:23;;;;;;;10.38;10.07;;;23.80;99.90;;;;;;5046357;28;20227;-84
2023/06/11 19:39:54;;;;;;;10.30;10.00;;;23.70;99.90;;;;;;5045847;28;20243;-84
2023/06/11 19:42:22;;;;;;;10.20;9.90;;;23.60;99.90;;;;;;5046248;28;20272;-85
2023/06/11 19:44:51;;;;;;;10.32;10.02;;;23.50;99.90;;;;;;5046032;28;20278;-85
2023/06/11 19:47:30;;;;;;;10.20;9.90;;;23.40;99.90;;;;;;5045390;28;20239;-84
2023/06/11 19:49:59;;;;;;;10.13;9.82;;;23.30;99.90;;;;;;5046096;28;20303;-85
2023/06/11 19:52:28;;;;;;;10.07;9.77;;;23.20;99.90;;;;;;5055490;28;20229;-83
2023/06/11 19:54:58;;;;;;;9.65;9.35;;;23.20;99.90;;;;;;5052960;28;20228;-85
2023/06/11 19:57:27;;;;;;;9.68;9.38;;;23.10;99.90;;;;;;5048288;28;20253;-85
2023/06/11 19:59:58;;;;;;;9.80;9.50;;;23.10;99.90;;;;;;5047771;28;20262;-85
2023/06/11 20:02:29;;;;;;;10.00;9.70;;;23.00;99.90;;;;;;5045847;28;20232;-85
2023/06/11 20:05:05;;;;;;;10.00;9.70;;;22.90;99.90;;;;;;5048099;28;20220;-84
2023/06/11 20:07:33;;;;;;;10.10;9.80;;;22.90;99.90;;;;;;5059275;28;20223;-85
2023/06/11 20:10:03;;;;;;;10.02;9.73;;;22.80;99.90;;;;;;5050789;28;20258;-85
2023/06/11 20:12:32;;;;;;;10.18;9.88;;;22.80;99.90;;;;;;5045559;28;20232;-85
2023/06/11 20:15:04;;;;;;;9.93;9.63;;;22.70;99.90;;;;;;5046129;28;20258;-86
2023/06/11 20:17:44;;;;;;;9.90;9.60;;;22.70;99.90;;;;;;5045828;28;20260;-85
2023/06/11 20:20:12;;;;;;;9.90;9.60;;;22.50;99.90;;;;;;5045961;28;20239;-86
2023/06/11 20:22:41;;;;;;;9.80;9.50;;;22.50;99.90;;;;;;5045686;28;20227;-85
2023/06/11 20:25:11;;;;;;;9.98;9.68;;;22.40;99.90;;;;;;5035612;28;20246;-86
2023/06/11 20:27:40;;;;;;;9.90;9.60;;;22.40;99.90;;;;;;5032711;28;20243;-86
2023/06/11 20:30:09;;;;;;;9.80;9.50;;;22.40;99.90;;;;;;5043356;28;20235;-85
2023/06/11 20:35:26;;;;;;;9.90;9.60;;;22.20;99.90;;;;;;5044428;28;20226;-86
2023/06/11 20:37:55;;;;;;;9.82;9.52;;;22.20;99.90;;;;;;5045519;28;20227;-86
2023/06/11 20:40:24;;;;;;;10.00;9.70;;;22.10;99.90;;;;;;5043146;28;20227;-86
2023/06/11 20:42:54;;;;;;;10.02;9.73;;;22.10;99.90;;;;;;5045916;28;20215;-85
2023/06/11 20:45:23;;;;;;;9.90;9.60;;;22.00;99.90;;;;;;5045911;28;20242;-86
2023/06/11 20:48:05;;;;;;;9.90;9.60;;;22.00;99.90;;;;;;5046789;28;20223;-86
2023/06/11 20:50:32;;;;;;;9.98;9.68;;;21.90;99.90;;;;;;5047060;28;20235;-85
2023/06/11 20:53:00;;;;;;;9.80;9.50;;;21.80;99.90;;;;;;5046420;28;20253;-86
2023/06/11 20:55:30;;;;;;;9.85;9.55;;;21.80;99.90;;;;;;5046788;28;20227;-86
2023/06/11 20:57:59;;;;;;;10.10;9.80;;;21.70;99.90;;;;;;5044721;28;20239;-86
2023/06/11 21:00:29;;;;;;;10.10;9.80;;;21.60;99.90;;;;;;5045807;28;20224;-85
2023/06/11 21:03:11;;;;;;;10.00;9.70;;;21.60;99.90;;;;;;5045980;28;20219;-85
2023/06/11 21:05:39;;;;;;;9.70;9.40;;;21.50;99.90;;;;;;5046824;28;20227;-86
2023/06/11 21:08:08;;;;;;;9.75;9.45;;;21.40;99.90;;;;;;5046187;28;20235;-86
2023/06/11 21:10:36;;;;;;;9.80;9.50;;;21.40;99.90;;;;;;5046189;28;20232;-86
2023/06/11 21:13:05;;;;;;;9.80;9.50;;;21.40;99.90;;;;;;5046489;28;20251;-86
2023/06/11 21:15:34;;;;;;;9.90;9.60;;;21.30;99.90;;;;;;5045820;28;20278;-86